createdAt,value
2023-05-06T00:01:16.981Z,71
2023-05-06T00:06:23.060Z,71
2023-05-06T00:11:29.153Z,71
2023-05-06T00:16:35.280Z,70.5
2023-05-06T00:21:41.372Z,72
2023-05-06T00:26:47.460Z,72
2023-05-06T00:31:53.612Z,70.5
2023-05-06T00:36:59.668Z,72
2023-05-06T00:42:05.819Z,72.5
2023-05-06T00:47:11.802Z,71
2023-05-06T00:52:17.918Z,72
2023-05-06T00:57:29.691Z,73
2023-05-06T01:02:46.109Z,72
2023-05-06T01:07:41.871Z,72.5
2023-05-06T01:12:48.164Z,71.5
2023-05-06T01:17:54.107Z,72.5
2023-05-06T01:23:00.177Z,74
2023-05-06T01:28:06.219Z,74
2023-05-06T01:33:12.298Z,74.5
2023-05-06T01:38:18.467Z,75.5
2023-05-06T01:43:24.505Z,76.5
2023-05-06T01:48:30.623Z,76.5
2023-05-06T01:53:41.698Z,76.5
2023-05-06T01:58:42.801Z,76
2023-05-06T02:03:48.957Z,74.5
2023-05-06T02:08:54.991Z,73.5
2023-05-06T02:14:01.078Z,73
2023-05-06T02:19:07.152Z,74.5
2023-05-06T02:24:13.259Z,75
2023-05-06T02:29:19.334Z,75.5
2023-05-06T02:34:25.508Z,76.5
2023-05-06T02:39:37.188Z,76
2023-05-06T02:44:48.900Z,77
2023-05-06T02:50:00.629Z,77.5
2023-05-06T02:55:06.797Z,77
2023-05-06T03:00:12.856Z,77.5
2023-05-06T03:05:18.928Z,78
2023-05-06T03:10:25.011Z,77
2023-05-06T03:15:31.137Z,75.5
2023-05-06T03:20:37.210Z,77.5
2023-05-06T03:25:43.288Z,75.5
2023-05-06T03:30:49.388Z,78
2023-05-06T03:35:55.483Z,77.5
2023-05-06T03:41:01.586Z,77
2023-05-06T03:46:07.791Z,76.5
2023-05-06T03:51:13.783Z,77.5
2023-05-06T03:56:19.851Z,77
2023-05-06T04:01:25.955Z,76.5
2023-05-06T04:06:32.049Z,77
2023-05-06T04:11:38.137Z,76.5
2023-05-06T04:16:44.283Z,77
2023-05-06T04:21:50.312Z,78
2023-05-06T04:26:56.451Z,78.5
2023-05-06T04:32:08.206Z,77
2023-05-06T04:37:19.865Z,75.5
2023-05-06T04:42:26.078Z,75.5
2023-05-06T04:47:32.106Z,74.5
2023-05-06T04:52:38.197Z,75.5
2023-05-06T04:57:44.274Z,76
2023-05-06T05:02:50.423Z,76.5
2023-05-06T05:07:56.459Z,73.5
2023-05-06T05:13:02.575Z,67.5
2023-05-06T05:18:08.704Z,56.5
2023-05-06T05:23:20.387Z,55.5
2023-05-06T05:28:26.500Z,53
2023-05-06T05:33:32.604Z,62
2023-05-06T05:38:38.674Z,63
2023-05-06T05:43:44.762Z,64
2023-05-06T05:48:50.850Z,48.5
2023-05-06T05:53:56.953Z,43
2023-05-06T05:59:03.064Z,43
2023-05-06T06:04:09.198Z,42
2023-05-06T06:09:15.229Z,43
2023-05-06T06:14:26.967Z,42
2023-05-06T06:19:38.712Z,38.5
2023-05-06T06:24:44.801Z,41
2023-05-06T06:29:50.890Z,43.5
2023-05-06T06:34:57.011Z,42.5
2023-05-06T06:40:03.078Z,47
2023-05-06T06:45:09.394Z,49.5
2023-05-06T06:50:15.290Z,50.5
2023-05-06T06:55:21.378Z,46
2023-05-06T07:00:27.461Z,45.5
2023-05-06T07:05:33.564Z,44
2023-05-06T07:10:39.678Z,42
2023-05-06T07:15:45.748Z,42.5
2023-05-06T07:20:51.858Z,42.5
2023-05-06T07:25:57.955Z,40
2023-05-06T07:31:04.063Z,40
2023-05-06T07:36:10.150Z,41.5
2023-05-06T07:41:16.235Z,41.5
2023-05-06T07:46:22.361Z,48
2023-05-06T07:51:28.449Z,44
2023-05-06T07:56:34.509Z,49.5
2023-05-06T08:01:46.264Z,48.5
2023-05-06T08:06:57.999Z,52.5
2023-05-06T08:12:04.090Z,49.5
2023-05-06T08:17:10.195Z,47.5
2023-05-06T08:22:16.283Z,50.5
2023-05-06T08:27:22.515Z,47
2023-05-06T08:32:28.499Z,50
2023-05-06T08:37:34.579Z,50.5
2023-05-06T08:42:40.676Z,52
2023-05-06T08:47:46.819Z,51.5
2023-05-06T08:52:52.845Z,50.5
2023-05-06T08:57:58.966Z,54
2023-05-06T09:03:05.136Z,57.5
2023-05-06T09:08:11.137Z,57.5
2023-05-06T09:13:17.320Z,62.5
2023-05-06T09:18:23.343Z,57
2023-05-06T09:23:29.455Z,57.5
2023-05-06T09:28:35.519Z,58
2023-05-06T09:33:41.643Z,57.5
2023-05-06T09:38:47.738Z,52.5
2023-05-06T09:43:53.859Z,57.5
2023-05-06T09:49:05.529Z,57.5
2023-05-06T09:54:11.657Z,52
2023-05-06T09:59:23.391Z,53
2023-05-06T10:04:29.592Z,54
2023-05-06T10:09:35.554Z,54
2023-05-06T10:14:41.665Z,54
2023-05-06T10:19:47.776Z,51.5
2023-05-06T10:24:53.879Z,51.5
2023-05-06T10:30:00.009Z,55
2023-05-06T10:35:06.061Z,53
2023-05-06T10:40:12.153Z,52
2023-05-06T10:45:18.251Z,56
2023-05-06T10:50:24.301Z,54.5
2023-05-06T10:55:30.436Z,52.5
2023-05-06T11:00:36.511Z,54.5
2023-05-06T11:05:42.613Z,47
2023-05-06T11:10:48.696Z,52.5
2023-05-06T11:15:54.818Z,50
2023-05-06T11:21:00.970Z,54.5
2023-05-06T11:26:06.989Z,52
2023-05-06T11:31:13.091Z,51
2023-05-06T11:36:19.182Z,45.5
2023-05-06T11:41:30.903Z,47.5
2023-05-06T11:46:42.696Z,54
2023-05-06T11:51:48.731Z,48.5
2023-05-06T11:56:54.839Z,44.5
2023-05-06T12:02:00.933Z,43.5
2023-05-06T12:07:07.042Z,46
2023-05-06T12:12:13.107Z,46
2023-05-06T12:17:19.229Z,45.5
2023-05-06T12:22:25.304Z,42.5
2023-05-06T12:27:31.419Z,44
2023-05-06T12:32:37.538Z,43
2023-05-06T12:37:43.605Z,40.5
2023-05-06T12:42:49.688Z,43.5
2023-05-06T12:47:55.828Z,46.5
2023-05-06T12:53:01.880Z,44.5
2023-05-06T12:58:07.963Z,44.5
2023-05-06T13:03:14.138Z,44.5
2023-05-06T13:08:20.147Z,45
2023-05-06T13:13:26.276Z,49.5
2023-05-06T13:18:32.361Z,41.5
2023-05-06T13:23:38.445Z,42.5
2023-05-06T13:28:50.180Z,41
2023-05-06T13:34:01.927Z,49
2023-05-06T13:39:08.031Z,40.5
2023-05-06T13:44:14.114Z,42.5
2023-05-06T13:49:20.192Z,41
2023-05-06T13:54:26.305Z,42
2023-05-06T13:59:32.385Z,48.5
2023-05-06T14:04:38.560Z,41.5
2023-05-06T14:09:44.803Z,43
2023-05-06T14:14:50.709Z,46.5
2023-05-06T14:19:56.761Z,45
2023-05-06T14:25:02.884Z,42
2023-05-06T14:30:09.769Z,46
2023-05-06T14:35:15.036Z,47
2023-05-06T14:40:21.186Z,49.5
2023-05-06T14:45:27.294Z,47
2023-05-06T14:50:33.333Z,46.5
2023-05-06T14:55:39.424Z,48
2023-05-06T15:00:45.560Z,44
2023-05-06T15:05:51.643Z,44
2023-05-06T15:10:57.731Z,44.5
2023-05-06T15:16:11.289Z,46.5
2023-05-06T15:21:21.184Z,44.5
2023-05-06T15:26:27.295Z,48
2023-05-06T15:31:39.112Z,46.5
2023-05-06T15:36:45.120Z,46
2023-05-06T15:41:51.219Z,45
2023-05-06T15:46:57.293Z,42.5
2023-05-06T15:52:03.408Z,45
2023-05-06T15:57:09.492Z,46.5
2023-05-06T16:07:21.673Z,48
2023-05-06T16:12:27.774Z,50
2023-05-06T16:17:33.907Z,52
2023-05-06T16:22:40.085Z,52
2023-05-06T16:27:46.071Z,50
2023-05-06T16:32:52.233Z,44.5
2023-05-06T16:37:58.254Z,45
2023-05-06T16:43:04.338Z,46.5
2023-05-06T16:48:10.534Z,45
2023-05-06T16:53:16.544Z,45
2023-05-06T16:58:22.654Z,46
2023-05-06T17:03:28.773Z,46
2023-05-06T17:08:36.842Z,46.5
2023-05-06T17:13:46.544Z,46.5
2023-05-06T17:18:58.303Z,45.5
2023-05-06T17:24:04.392Z,47
2023-05-06T17:29:10.481Z,46.5
2023-05-06T17:34:16.575Z,49.5
2023-05-06T17:39:22.661Z,48.5
2023-05-06T17:44:28.801Z,51
2023-05-06T17:49:34.852Z,48.5
2023-05-06T17:54:40.982Z,48.5
2023-05-06T17:59:47.043Z,48
2023-05-06T18:04:53.163Z,49
2023-05-06T18:09:59.230Z,49.5
2023-05-06T18:15:05.319Z,51.5
2023-05-06T18:20:11.455Z,51
2023-05-06T18:25:17.532Z,51.5
2023-05-06T18:30:23.625Z,53
2023-05-06T18:35:29.720Z,54.5
2023-05-06T18:40:35.800Z,56.5
2023-05-06T18:45:41.920Z,57.5
2023-05-06T18:50:48.000Z,58
2023-05-06T18:55:54.095Z,61
2023-05-06T19:01:05.952Z,60.5
2023-05-06T19:06:11.928Z,61.5
2023-05-06T19:11:18.013Z,62.5
2023-05-06T19:16:24.157Z,63
2023-05-06T19:21:30.184Z,63.5
2023-05-06T19:26:36.302Z,63.5
2023-05-06T19:31:42.419Z,62.5
2023-05-06T19:36:48.501Z,62
2023-05-06T19:41:54.587Z,62.5
2023-05-06T19:47:00.709Z,62
2023-05-06T19:52:06.790Z,62
2023-05-06T19:57:12.860Z,62
2023-05-06T20:02:18.975Z,61.5
2023-05-06T20:07:25.060Z,60.5
2023-05-06T20:12:31.131Z,60.5
2023-05-06T20:17:37.275Z,61
2023-05-06T20:22:43.345Z,62
2023-05-06T20:27:49.425Z,60.5
2023-05-06T20:32:55.543Z,59.5
2023-05-06T20:38:01.649Z,58.5
2023-05-06T20:43:13.366Z,59
2023-05-06T20:48:25.078Z,59
2023-05-06T20:53:36.798Z,60.5
2023-05-06T20:58:42.916Z,59.5
2023-05-06T21:03:49.056Z,61
2023-05-06T21:08:55.085Z,60.5
2023-05-06T21:14:01.193Z,60.5
2023-05-06T21:19:07.287Z,59.5
2023-05-06T21:24:13.408Z,59.5
2023-05-06T21:29:19.479Z,61
2023-05-06T21:34:25.589Z,63
2023-05-06T21:39:31.655Z,64
2023-05-06T21:44:37.813Z,65.5
2023-05-06T21:49:43.823Z,65.5
2023-05-06T21:54:49.940Z,67
2023-05-06T21:59:56.040Z,66.5
2023-05-06T22:05:02.150Z,64.5
2023-05-06T22:10:08.252Z,63
2023-05-06T22:15:14.353Z,65
2023-05-06T22:20:20.437Z,66.5
2023-05-06T22:25:32.185Z,66.5
2023-05-06T22:30:38.276Z,65
2023-05-06T22:35:44.343Z,65.5
2023-05-06T22:40:50.455Z,64.5
2023-05-06T22:45:56.585Z,65
2023-05-06T22:51:03.650Z,65
2023-05-06T22:56:08.752Z,66
2023-05-06T23:01:14.847Z,65
2023-05-06T23:06:20.893Z,66
2023-05-06T23:11:27.005Z,66.5
2023-05-06T23:16:33.085Z,67.5
2023-05-06T23:21:39.190Z,69
2023-05-06T23:26:46.327Z,70
2023-05-06T23:31:51.419Z,70
2023-05-06T23:36:57.499Z,71
2023-05-06T23:42:03.592Z,69.5
2023-05-06T23:47:09.673Z,69.5
2023-05-06T23:52:15.756Z,68
2023-05-06T23:57:21.912Z,69.5
